Time;durP1;ratioP1;P1;durP2;ratioP2;P2;SDS_P1;SDS_P2;PMS_P1;PMS_P2;Temp;Humidity;BMP_temperature;BMP_pressure;BME280_temperature;BME280_humidity;BME280_pressure;Samples;Min_cycle;Max_cycle;Signal;HPM_P1;HPM_P2
2023/12/30 00:00:00;;;;;;;3.72;1.33;;;;;;;;;;5007893;28;98992;-81
2023/12/30 00:02:26;;;;;;;3.42;1.20;;;;;;;;;;5002528;28;98404;-81
2023/12/30 00:04:53;;;;;;;3.28;1.20;;;;;;;;;;5017398;27;98462;-82
2023/12/30 00:07:20;;;;;;;4.25;1.10;;;;;;;;;;5010767;28;101140;-83
2023/12/30 00:09:46;;;;;;;4.40;0.95;;;;;;;;;;5015167;28;98279;-80
2023/12/30 00:12:13;;;;;;;4.97;1.40;;;;;;;;;;5016049;27;98721;-79
2023/12/30 00:14:39;;;;;;;3.72;1.20;;;;;;;;;;5015873;28;98508;-80
2023/12/30 00:17:06;;;;;;;4.28;1.15;;;;;;;;;;5014653;28;98594;-80
2023/12/30 00:19:34;;;;;;;2.90;1.00;;;;;;;;;;5020230;28;98827;-81
2023/12/30 00:22:02;;;;;;;4.00;1.27;;;;;;;;;;4996989;28;99445;-80
2023/12/30 00:24:29;;;;;;;2.97;1.00;;;;;;;;;;5016429;27;99373;-80
2023/12/30 00:26:56;;;;;;;3.45;1.20;;;;;;;;;;5010974;28;99097;-80
2023/12/30 00:29:22;;;;;;;3.58;0.98;;;;;;;;;;4995996;28;98436;-80
2023/12/30 00:31:49;;;;;;;3.25;1.20;;;;;;;;;;5014841;28;101179;-80
2023/12/30 00:34:15;;;;;;;6.68;1.02;;;;;;;;;;5029556;27;104123;-80
2023/12/30 00:36:45;;;;;;;3.78;1.00;;;;;;;;;;4996837;28;98589;-81
2023/12/30 00:39:12;;;;;;;5.50;1.17;;;;;;;;;;4990295;28;101516;-79
2023/12/30 00:41:39;;;;;;;9.05;1.70;;;;;;;;;;5011222;28;99611;-80
2023/12/30 00:44:05;;;;;;;11.85;1.80;;;;;;;;;;4994508;28;98926;-79
2023/12/30 00:46:32;;;;;;;10.55;1.52;;;;;;;;;;5010384;28;102415;-80
2023/12/30 00:48:59;;;;;;;8.73;1.40;;;;;;;;;;4989715;27;98562;-80
2023/12/30 00:51:26;;;;;;;9.82;1.52;;;;;;;;;;5007770;28;99140;-80
2023/12/30 00:53:52;;;;;;;11.75;1.40;;;;;;;;;;4993477;28;99601;-81
2023/12/30 00:56:19;;;;;;;9.07;1.50;;;;;;;;;;4985080;28;98569;-80
2023/12/30 00:58:46;;;;;;;6.35;1.20;;;;;;;;;;5010957;28;98418;-81
2023/12/30 01:01:13;;;;;;;5.80;1.30;;;;;;;;;;4986645;28;99358;-81
2023/12/30 01:03:40;;;;;;;8.90;1.40;;;;;;;;;;5002061;28;97400;-81
2023/12/30 01:06:07;;;;;;;7.13;1.40;;;;;;;;;;5014995;28;99932;-79
2023/12/30 01:08:34;;;;;;;9.18;1.52;;;;;;;;;;4977955;28;98642;-81
2023/12/30 01:11:01;;;;;;;8.70;1.70;;;;;;;;;;4995135;28;101111;-81
2023/12/30 01:13:27;;;;;;;7.07;1.40;;;;;;;;;;5006569;28;99578;-81
2023/12/30 01:15:54;;;;;;;5.35;1.40;;;;;;;;;;4999247;28;98605;-80
2023/12/30 01:18:21;;;;;;;4.90;1.20;;;;;;;;;;4994146;28;100449;-81
2023/12/30 01:20:47;;;;;;;4.28;1.35;;;;;;;;;;4997162;28;100874;-81
2023/12/30 01:23:14;;;;;;;5.95;1.30;;;;;;;;;;5013383;28;98318;-81
2023/12/30 01:25:42;;;;;;;6.03;1.20;;;;;;;;;;5006200;28;98582;-82
2023/12/30 01:28:09;;;;;;;4.63;1.48;;;;;;;;;;5005405;28;97766;-81
2023/12/30 01:30:39;;;;;;;6.95;1.40;;;;;;;;;;5012961;28;98678;-80
2023/12/30 01:33:06;;;;;;;5.55;1.40;;;;;;;;;;5001470;28;101136;-80
2023/12/30 01:35:34;;;;;;;6.28;1.13;;;;;;;;;;4967187;28;99585;-81
2023/12/30 01:38:01;;;;;;;5.07;1.27;;;;;;;;;;5007041;28;99060;-81
2023/12/30 01:40:31;;;;;;;4.07;1.40;;;;;;;;;;4981412;27;101293;-81
2023/12/30 01:43:02;;;;;;;5.20;1.23;;;;;;;;;;5007474;28;98283;-81
2023/12/30 01:45:30;;;;;;;6.05;1.25;;;;;;;;;;4982277;28;101464;-81
2023/12/30 01:47:57;;;;;;;5.85;1.38;;;;;;;;;;5002998;28;101663;-81
2023/12/30 01:50:24;;;;;;;;;;;;;;;;;;4996445;28;100152;-80
2023/12/30 01:52:51;;;;;;;6.72;1.30;;;;;;;;;;5029661;28;100864;-81
2023/12/30 01:55:17;;;;;;;7.07;1.50;;;;;;;;;;4994967;28;98656;-80
2023/12/30 01:57:44;;;;;;;5.70;1.30;;;;;;;;;;5007744;28;100683;-81
2023/12/30 02:00:16;;;;;;;6.55;1.60;;;;;;;;;;4996324;27;102433;-81
2023/12/30 02:02:43;;;;;;;3.58;1.27;;;;;;;;;;4977253;28;98233;-81
2023/12/30 02:05:10;;;;;;;3.03;1.05;;;;;;;;;;4994975;28;101535;-81
2023/12/30 02:07:39;;;;;;;3.70;1.20;;;;;;;;;;5010083;28;101184;-81
2023/12/30 02:10:06;;;;;;;5.85;1.27;;;;;;;;;;4998312;28;100547;-81
2023/12/30 02:12:33;;;;;;;6.40;1.40;;;;;;;;;;5010421;28;105188;-81
2023/12/30 02:15:18;;;;;;;4.85;1.23;;;;;;;;;;4997853;28;100332;-80
2023/12/30 02:17:47;;;;;;;6.88;1.23;;;;;;;;;;4981229;28;100705;-81
2023/12/30 02:20:14;;;;;;;4.47;1.30;;;;;;;;;;4997797;28;98718;-82
2023/12/30 02:22:43;;;;;;;3.95;1.10;;;;;;;;;;5003542;28;98311;-82
2023/12/30 02:25:11;;;;;;;2.95;1.08;;;;;;;;;;5008887;28;99731;-82
2023/12/30 02:27:38;;;;;;;7.32;1.42;;;;;;;;;;5010943;28;98674;-80
2023/12/30 02:30:05;;;;;;;4.05;1.00;;;;;;;;;;5005042;28;98154;-81
2023/12/30 02:32:32;;;;;;;2.55;0.98;;;;;;;;;;5000491;27;98722;-81
2023/12/30 02:34:58;;;;;;;5.13;1.20;;;;;;;;;;4993646;28;98682;-81
2023/12/30 02:37:25;;;;;;;3.38;1.10;;;;;;;;;;4997438;28;101223;-81
2023/12/30 02:39:52;;;;;;;3.88;1.08;;;;;;;;;;4996597;28;101038;-80
2023/12/30 02:42:19;;;;;;;3.75;1.13;;;;;;;;;;5014147;27;97424;-82
2023/12/30 02:44:45;;;;;;;3.00;0.90;;;;;;;;;;4995421;28;98839;-81
2023/12/30 02:47:12;;;;;;;4.53;1.10;;;;;;;;;;4985684;28;99907;-81
2023/12/30 02:49:42;;;;;;;4.10;1.00;;;;;;;;;;5009578;28;99410;-81
2023/12/30 02:52:08;;;;;;;5.00;1.30;;;;;;;;;;5002795;27;102919;-81
2023/12/30 02:54:35;;;;;;;3.75;1.02;;;;;;;;;;4983896;28;98622;-81
2023/12/30 02:57:03;;;;;;;6.82;1.10;;;;;;;;;;5009999;28;98426;-79
2023/12/30 02:59:30;;;;;;;4.95;1.00;;;;;;;;;;5004509;28;100975;-80
2023/12/30 03:01:56;;;;;;;5.13;1.08;;;;;;;;;;5009334;28;98188;-80
2023/12/30 03:04:24;;;;;;;3.50;0.80;;;;;;;;;;4993676;28;100638;-81
2023/12/30 03:06:51;;;;;;;4.20;1.00;;;;;;;;;;5005096;28;98307;-81
2023/12/30 03:09:17;;;;;;;4.22;1.00;;;;;;;;;;5016747;28;98263;-81
2023/12/30 03:11:44;;;;;;;6.28;1.33;;;;;;;;;;5004255;28;101378;-81
2023/12/30 03:14:11;;;;;;;4.63;1.27;;;;;;;;;;4986762;28;102315;-81
2023/12/30 03:16:38;;;;;;;3.65;0.90;;;;;;;;;;4994091;28;99443;-82
2023/12/30 03:19:04;;;;;;;4.57;1.00;;;;;;;;;;4996476;28;99472;-81
2023/12/30 03:21:31;;;;;;;5.13;1.10;;;;;;;;;;4989058;28;98884;-82
2023/12/30 03:23:58;;;;;;;5.40;1.02;;;;;;;;;;5001214;28;99248;-81
2023/12/30 03:26:25;;;;;;;4.47;1.05;;;;;;;;;;4994180;27;98878;-82
2023/12/30 03:28:52;;;;;;;4.80;1.30;;;;;;;;;;5002552;28;98681;-80
2023/12/30 03:31:20;;;;;;;4.05;1.10;;;;;;;;;;4997703;28;101411;-81
2023/12/30 03:33:46;;;;;;;;;;;;;;;;;;4999153;28;99542;-81
2023/12/30 03:36:12;;;;;;;3.28;0.90;;;;;;;;;;5009510;28;98209;-81
2023/12/30 03:38:39;;;;;;;5.60;1.10;;;;;;;;;;4988008;28;101331;-81
2023/12/30 03:41:06;;;;;;;4.03;1.15;;;;;;;;;;4979543;28;98663;-80
2023/12/30 03:43:34;;;;;;;6.80;1.20;;;;;;;;;;4975893;28;101325;-81
2023/12/30 03:46:00;;;;;;;3.67;1.17;;;;;;;;;;4970991;28;100757;-81
2023/12/30 03:48:27;;;;;;;5.07;1.17;;;;;;;;;;4994734;28;98849;-80
2023/12/30 03:50:53;;;;;;;11.40;1.35;;;;;;;;;;5004249;28;98533;-80
2023/12/30 03:53:20;;;;;;;6.53;1.20;;;;;;;;;;4995539;28;101621;-81
2023/12/30 03:55:47;;;;;;;3.85;1.00;;;;;;;;;;5000114;28;97846;-80
2023/12/30 03:58:13;;;;;;;3.78;0.98;;;;;;;;;;4984494;28;98336;-81
2023/12/30 04:00:40;;;;;;;5.97;1.08;;;;;;;;;;4997281;28;98405;-81
2023/12/30 04:03:06;;;;;;;4.47;0.95;;;;;;;;;;4994652;28;101238;-81
2023/12/30 04:05:34;;;;;;;3.72;0.82;;;;;;;;;;4991575;28;98772;-81
2023/12/30 04:08:01;;;;;;;3.65;0.90;;;;;;;;;;4996285;28;98342;-81
2023/12/30 04:10:28;;;;;;;5.18;1.10;;;;;;;;;;5013634;28;100870;-81
2023/12/30 04:12:54;;;;;;;3.85;1.00;;;;;;;;;;5007060;28;99960;-81
2023/12/30 04:15:21;;;;;;;3.85;1.00;;;;;;;;;;4979013;28;98837;-81
2023/12/30 04:17:48;;;;;;;5.63;1.02;;;;;;;;;;5012945;28;100971;-81
2023/12/30 04:20:15;;;;;;;5.88;1.10;;;;;;;;;;4997683;28;97607;-80
2023/12/30 04:22:41;;;;;;;6.05;1.08;;;;;;;;;;4997929;28;98935;-79
2023/12/30 04:25:08;;;;;;;5.70;1.00;;;;;;;;;;4969487;28;101794;-79
2023/12/30 04:27:35;;;;;;;3.35;0.82;;;;;;;;;;4997683;28;99206;-80
2023/12/30 04:30:02;;;;;;;;;;;;;;;;;;4988513;28;101430;-80
2023/12/30 04:32:29;;;;;;;4.47;1.20;;;;;;;;;;4977614;28;119488;-80
2023/12/30 04:34:55;;;;;;;3.78;0.98;;;;;;;;;;4995205;28;99129;-80
2023/12/30 04:37:23;;;;;;;5.95;0.90;;;;;;;;;;4978080;28;100859;-79
2023/12/30 04:39:49;;;;;;;3.20;0.73;;;;;;;;;;4981833;28;101292;-80
2023/12/30 04:42:16;;;;;;;4.95;1.00;;;;;;;;;;5012269;27;98852;-80
2023/12/30 04:44:42;;;;;;;5.60;1.10;;;;;;;;;;4998863;28;100337;-80
2023/12/30 04:47:09;;;;;;;3.90;1.00;;;;;;;;;;4996295;28;98178;-80
2023/12/30 04:49:35;;;;;;;4.20;1.10;;;;;;;;;;5015928;28;100981;-80
2023/12/30 04:52:03;;;;;;;;;;;;;;;;;;4998921;28;102825;-80
2023/12/30 04:54:32;;;;;;;5.88;0.90;;;;;;;;;;5007813;27;98360;-80
2023/12/30 04:56:59;;;;;;;3.45;0.90;;;;;;;;;;5014385;28;99272;-80
2023/12/30 04:59:26;;;;;;;4.88;1.02;;;;;;;;;;4987748;28;101801;-81
2023/12/30 05:01:54;;;;;;;4.85;1.38;;;;;;;;;;4996729;28;98382;-81
2023/12/30 05:04:21;;;;;;;4.10;0.98;;;;;;;;;;5008735;28;99287;-81
2023/12/30 05:06:47;;;;;;;3.25;0.90;;;;;;;;;;4994899;28;100089;-81
2023/12/30 05:09:14;;;;;;;4.18;0.95;;;;;;;;;;4997323;28;98715;-81
2023/12/30 05:11:44;;;;;;;5.03;1.02;;;;;;;;;;4992979;28;101862;-80
2023/12/30 05:14:12;;;;;;;3.70;0.98;;;;;;;;;;4997368;28;98471;-79
2023/12/30 05:16:42;;;;;;;4.07;0.95;;;;;;;;;;4999309;28;100295;-79
2023/12/30 05:19:09;;;;;;;4.75;0.70;;;;;;;;;;5008008;28;98821;-80
2023/12/30 05:21:36;;;;;;;2.70;0.73;;;;;;;;;;5023626;28;98499;-80
2023/12/30 05:24:05;;;;;;;4.97;1.00;;;;;;;;;;4992469;28;98965;-79
2023/12/30 05:26:31;;;;;;;5.38;1.00;;;;;;;;;;4989396;28;98706;-80
2023/12/30 05:28:58;;;;;;;6.80;1.10;;;;;;;;;;5010019;28;98419;-81
2023/12/30 05:31:25;;;;;;;4.53;0.88;;;;;;;;;;5002695;28;101174;-80
2023/12/30 05:33:52;;;;;;;3.95;0.90;;;;;;;;;;4997254;28;98524;-81
2023/12/30 05:36:18;;;;;;;6.97;1.00;;;;;;;;;;4994913;28;98244;-82
2023/12/30 05:38:45;;;;;;;4.38;0.95;;;;;;;;;;4986685;28;102229;-81
2023/12/30 05:41:12;;;;;;;6.60;1.00;;;;;;;;;;4994963;28;99084;-80
2023/12/30 05:43:40;;;;;;;3.67;0.90;;;;;;;;;;4991642;28;99566;-81
2023/12/30 05:46:06;;;;;;;3.33;0.80;;;;;;;;;;5015050;28;98806;-82
2023/12/30 05:48:33;;;;;;;3.38;1.05;;;;;;;;;;4996984;28;104935;-81
2023/12/30 05:51:00;;;;;;;4.47;1.15;;;;;;;;;;4982846;28;101161;-81
2023/12/30 05:53:28;;;;;;;3.47;0.95;;;;;;;;;;5006690;28;98267;-80
2023/12/30 05:55:55;;;;;;;4.45;0.93;;;;;;;;;;5006022;28;98393;-81
2023/12/30 05:58:21;;;;;;;3.90;0.90;;;;;;;;;;5011800;27;101098;-81
2023/12/30 06:00:48;;;;;;;4.68;1.00;;;;;;;;;;4998972;28;98612;-81
2023/12/30 06:03:14;;;;;;;2.28;0.90;;;;;;;;;;5007677;28;98554;-81
2023/12/30 06:05:41;;;;;;;2.75;0.80;;;;;;;;;;5001782;28;99472;-81
2023/12/30 06:08:08;;;;;;;4.57;0.90;;;;;;;;;;4991595;28;98473;-81
2023/12/30 06:10:35;;;;;;;4.35;0.90;;;;;;;;;;5014483;28;99343;-80
2023/12/30 06:13:02;;;;;;;5.90;1.00;;;;;;;;;;4994875;28;98702;-80
2023/12/30 06:15:29;;;;;;;2.97;0.90;;;;;;;;;;4978520;28;100971;-81
2023/12/30 06:17:55;;;;;;;5.45;1.00;;;;;;;;;;4995371;28;101762;-80
2023/12/30 06:20:23;;;;;;;3.15;0.90;;;;;;;;;;5012914;28;98167;-80
2023/12/30 06:22:49;;;;;;;4.70;1.15;;;;;;;;;;4995443;28;98673;-80
2023/12/30 06:25:16;;;;;;;4.70;0.90;;;;;;;;;;5008149;28;99034;-81
2023/12/30 06:27:43;;;;;;;4.57;1.08;;;;;;;;;;5008861;27;98368;-80
2023/12/30 06:30:09;;;;;;;4.32;1.00;;;;;;;;;;4994551;28;101899;-82
2023/12/30 06:32:36;;;;;;;5.20;1.02;;;;;;;;;;5017378;27;98756;-83
2023/12/30 06:35:03;;;;;;;4.32;1.20;;;;;;;;;;5004528;28;101901;-81
2023/12/30 06:37:29;;;;;;;3.42;0.90;;;;;;;;;;5004121;28;100153;-81
2023/12/30 06:39:56;;;;;;;3.45;0.95;;;;;;;;;;5012935;27;98905;-81
2023/12/30 06:42:23;;;;;;;5.90;1.23;;;;;;;;;;5001360;28;98779;-81
2023/12/30 06:44:49;;;;;;;3.33;0.98;;;;;;;;;;5011769;28;98812;-81
2023/12/30 06:47:16;;;;;;;5.32;1.00;;;;;;;;;;5015100;28;97661;-81
2023/12/30 06:49:42;;;;;;;3.00;1.00;;;;;;;;;;5007598;28;98294;-81
2023/12/30 06:52:09;;;;;;;3.75;1.00;;;;;;;;;;5010132;28;98382;-82
2023/12/30 06:54:35;;;;;;;3.25;0.80;;;;;;;;;;4995927;28;98908;-80
2023/12/30 06:57:02;;;;;;;4.25;0.90;;;;;;;;;;5005781;28;98716;-80
2023/12/30 06:59:28;;;;;;;3.33;0.70;;;;;;;;;;5005964;27;98255;-80
2023/12/30 07:01:55;;;;;;;3.63;0.90;;;;;;;;;;4996736;28;101231;-80
2023/12/30 07:04:25;;;;;;;2.63;0.77;;;;;;;;;;4978569;27;101517;-81
2023/12/30 07:06:52;;;;;;;5.22;1.00;;;;;;;;;;4986341;28;98358;-81
2023/12/30 07:09:18;;;;;;;6.88;1.10;;;;;;;;;;5016398;28;100948;-82
2023/12/30 07:11:45;;;;;;;5.38;0.98;;;;;;;;;;5008652;27;98430;-82
2023/12/30 07:14:11;;;;;;;2.72;1.00;;;;;;;;;;5011316;28;98727;-82
2023/12/30 07:16:38;;;;;;;5.13;0.90;;;;;;;;;;5001041;28;101646;-82
2023/12/30 07:19:04;;;;;;;3.55;0.85;;;;;;;;;;5007635;28;99196;-81
2023/12/30 07:21:31;;;;;;;4.10;0.90;;;;;;;;;;4976699;28;101780;-80
2023/12/30 07:23:57;;;;;;;4.05;0.93;;;;;;;;;;5007279;28;105148;-80
2023/12/30 07:26:24;;;;;;;4.05;0.90;;;;;;;;;;5000125;27;98288;-82
2023/12/30 07:28:50;;;;;;;4.00;1.00;;;;;;;;;;5016672;28;100295;-81
2023/12/30 07:31:17;;;;;;;5.82;1.10;;;;;;;;;;5016040;28;101011;-80
2023/12/30 07:33:44;;;;;;;4.32;1.10;;;;;;;;;;5019695;28;98330;-80
2023/12/30 07:36:11;;;;;;;;;;;;;;;;;;4979198;27;100433;-81
2023/12/30 07:38:38;;;;;;;4.22;1.00;;;;;;;;;;4997236;28;98447;-80
2023/12/30 07:41:04;;;;;;;5.18;1.15;;;;;;;;;;4998276;27;99046;-80
2023/12/30 07:43:31;;;;;;;4.57;1.10;;;;;;;;;;4997149;27;99544;-81
2023/12/30 07:45:57;;;;;;;5.07;1.20;;;;;;;;;;4979177;28;98310;-80
2023/12/30 07:48:24;;;;;;;4.03;1.15;;;;;;;;;;5013680;28;98797;-80
2023/12/30 07:50:50;;;;;;;4.05;1.25;;;;;;;;;;4997439;27;98896;-81
2023/12/30 07:53:17;;;;;;;6.32;1.38;;;;;;;;;;4996120;28;99069;-81
2023/12/30 07:55:44;;;;;;;4.40;1.23;;;;;;;;;;5012244;28;101352;-81
2023/12/30 07:58:10;;;;;;;4.60;1.00;;;;;;;;;;4980441;27;98209;-79
2023/12/30 08:00:38;;;;;;;4.78;0.93;;;;;;;;;;5001188;28;98374;-80
2023/12/30 08:03:04;;;;;;;4.13;1.10;;;;;;;;;;5007310;28;100879;-80
2023/12/30 08:05:32;;;;;;;5.63;1.05;;;;;;;;;;4979645;28;98696;-80
2023/12/30 08:07:58;;;;;;;5.35;1.15;;;;;;;;;;5010314;28;99347;-81
2023/12/30 08:10:25;;;;;;;5.00;1.20;;;;;;;;;;4996091;28;99223;-81
2023/12/30 08:12:52;;;;;;;5.15;1.30;;;;;;;;;;4995262;28;99028;-81
2023/12/30 08:15:18;;;;;;;5.25;1.10;;;;;;;;;;4998291;28;98219;-81
2023/12/30 08:17:45;;;;;;;4.68;1.45;;;;;;;;;;5008186;28;98792;-81
2023/12/30 08:20:12;;;;;;;4.55;1.02;;;;;;;;;;4998569;27;98610;-80
2023/12/30 08:22:39;;;;;;;4.70;1.30;;;;;;;;;;4996127;28;98810;-81
2023/12/30 08:25:06;;;;;;;5.45;1.30;;;;;;;;;;4991151;28;97390;-82
2023/12/30 08:27:33;;;;;;;5.57;1.25;;;;;;;;;;4990381;28;101419;-81
2023/12/30 08:29:59;;;;;;;5.20;1.27;;;;;;;;;;5014051;27;98860;-81
2023/12/30 08:32:26;;;;;;;7.30;1.30;;;;;;;;;;4996724;28;99166;-80
2023/12/30 08:34:54;;;;;;;5.97;1.25;;;;;;;;;;5001110;27;100359;-81
2023/12/30 08:37:20;;;;;;;5.75;1.20;;;;;;;;;;4994843;28;99987;-81
2023/12/30 08:39:47;;;;;;;6.13;1.30;;;;;;;;;;4996231;28;98741;-82
2023/12/30 08:42:14;;;;;;;9.98;1.50;;;;;;;;;;5011080;28;101409;-81
2023/12/30 08:44:43;;;;;;;5.45;1.13;;;;;;;;;;4977123;28;98311;-83
2023/12/30 08:47:11;;;;;;;5.97;1.20;;;;;;;;;;4989370;28;98343;-82
2023/12/30 08:49:38;;;;;;;8.50;1.50;;;;;;;;;;4991395;28;100398;-81
2023/12/30 08:52:05;;;;;;;5.65;1.17;;;;;;;;;;5001543;27;98469;-82
2023/12/30 08:54:32;;;;;;;7.72;1.50;;;;;;;;;;4994906;27;98509;-80
2023/12/30 08:56:58;;;;;;;4.35;1.23;;;;;;;;;;4990197;27;99778;-81
2023/12/30 08:59:25;;;;;;;7.85;1.42;;;;;;;;;;5004557;28;98124;-81
2023/12/30 09:01:52;;;;;;;5.53;1.30;;;;;;;;;;5002392;27;99337;-81
2023/12/30 09:04:21;;;;;;;8.18;1.60;;;;;;;;;;4997206;28;98721;-82
2023/12/30 09:06:48;;;;;;;5.80;1.40;;;;;;;;;;5011982;27;98529;-82
2023/12/30 09:09:15;;;;;;;6.22;1.30;;;;;;;;;;5001541;28;101498;-81
2023/12/30 09:11:42;;;;;;;5.00;1.40;;;;;;;;;;5015708;27;98204;-81
2023/12/30 09:14:09;;;;;;;6.32;1.48;;;;;;;;;;5013174;27;101191;-81
2023/12/30 09:16:36;;;;;;;7.18;1.70;;;;;;;;;;5013867;28;101377;-81
2023/12/30 09:19:03;;;;;;;7.38;1.40;;;;;;;;;;5013032;28;99518;-81
2023/12/30 09:21:32;;;;;;;5.47;1.30;;;;;;;;;;5017713;27;99159;-82
2023/12/30 09:23:58;;;;;;;6.70;1.45;;;;;;;;;;5021793;28;98321;-81
2023/12/30 09:26:25;;;;;;;9.48;1.63;;;;;;;;;;5017055;27;98688;-83
2023/12/30 09:28:52;;;;;;;5.90;1.30;;;;;;;;;;5019325;27;99684;-80
2023/12/30 09:31:20;;;;;;;5.63;1.38;;;;;;;;;;5012635;27;98704;-81
2023/12/30 09:33:48;;;;;;;5.00;1.50;;;;;;;;;;4996097;28;101346;-82
2023/12/30 09:36:15;;;;;;;7.25;1.50;;;;;;;;;;5011984;27;100839;-81
2023/12/30 09:38:42;;;;;;;5.22;1.60;;;;;;;;;;5000703;27;97558;-82
2023/12/30 09:41:08;;;;;;;4.85;1.20;;;;;;;;;;5000497;28;98817;-81
2023/12/30 09:43:36;;;;;;;6.57;1.35;;;;;;;;;;5009941;28;98728;-81
2023/12/30 09:46:05;;;;;;;6.70;1.40;;;;;;;;;;5005028;28;100767;-81
2023/12/30 09:48:34;;;;;;;6.15;1.42;;;;;;;;;;4999114;28;102919;-82
2023/12/30 09:51:01;;;;;;;5.85;1.40;;;;;;;;;;5001121;28;98389;-82
2023/12/30 09:53:28;;;;;;;4.68;1.20;;;;;;;;;;4983467;28;100580;-82
2023/12/30 09:56:00;;;;;;;5.45;1.30;;;;;;;;;;5002416;28;99212;-81
2023/12/30 09:58:27;;;;;;;5.30;1.20;;;;;;;;;;5000119;28;98717;-80
2023/12/30 10:00:54;;;;;;;7.72;1.50;;;;;;;;;;4997585;28;98516;-81
2023/12/30 10:03:21;;;;;;;6.85;1.40;;;;;;;;;;5000025;28;97972;-81
2023/12/30 10:05:51;;;;;;;4.70;1.17;;;;;;;;;;5002895;28;98786;-82
2023/12/30 10:08:18;;;;;;;4.78;1.30;;;;;;;;;;4999700;28;103488;-81
2023/12/30 10:10:46;;;;;;;7.38;1.60;;;;;;;;;;5002465;28;99171;-81
2023/12/30 10:13:14;;;;;;;6.32;1.55;;;;;;;;;;5001205;28;99630;-81
2023/12/30 10:15:42;;;;;;;7.47;1.45;;;;;;;;;;5000484;28;101109;-79
2023/12/30 10:18:09;;;;;;;8.25;2.10;;;;;;;;;;4999649;28;98334;-81
2023/12/30 10:20:37;;;;;;;6.50;1.50;;;;;;;;;;5000421;28;100538;-81
2023/12/30 10:23:04;;;;;;;6.82;1.40;;;;;;;;;;5002312;28;99997;-82
2023/12/30 10:25:31;;;;;;;5.35;1.52;;;;;;;;;;5005767;28;98265;-80
2023/12/30 10:27:57;;;;;;;6.75;1.60;;;;;;;;;;4984020;28;101281;-81
2023/12/30 10:30:24;;;;;;;6.93;1.63;;;;;;;;;;5001448;28;98449;-78
2023/12/30 10:32:50;;;;;;;4.53;1.35;;;;;;;;;;5015106;28;99030;-80
2023/12/30 10:35:17;;;;;;;7.07;1.80;;;;;;;;;;5016308;28;102273;-79
2023/12/30 10:37:46;;;;;;;7.18;1.52;;;;;;;;;;5004409;28;98574;-79
2023/12/30 10:40:13;;;;;;;6.28;1.55;;;;;;;;;;4997746;28;99302;-82
2023/12/30 10:42:40;;;;;;;;;;;;;;;;;;5001176;28;98734;-80
2023/12/30 10:45:07;;;;;;;4.82;1.50;;;;;;;;;;5018635;28;98641;-79
2023/12/30 10:47:38;;;;;;;6.07;1.38;;;;;;;;;;5021161;28;98820;-81
2023/12/30 10:50:06;;;;;;;7.72;1.40;;;;;;;;;;5005414;28;98391;-81
2023/12/30 10:52:35;;;;;;;4.30;1.50;;;;;;;;;;4998703;28;103053;-81
2023/12/30 10:55:08;;;;;;;6.28;1.67;;;;;;;;;;4988981;28;100535;-84
2023/12/30 10:57:36;;;;;;;4.72;1.50;;;;;;;;;;4991021;28;98397;-79
2023/12/30 11:00:23;;;;;;;5.68;1.63;;;;;;;;;;4981903;28;99188;-80
2023/12/30 11:02:50;;;;;;;6.60;1.65;;;;;;;;;;4993664;28;106426;-79
2023/12/30 11:05:23;;;;;;;6.32;1.50;;;;;;;;;;5014965;28;98756;-80
2023/12/30 11:07:50;;;;;;;4.93;1.50;;;;;;;;;;5015591;28;98639;-81
2023/12/30 11:10:17;;;;;;;5.03;1.58;;;;;;;;;;5017643;28;98976;-80
2023/12/30 11:12:44;;;;;;;7.55;1.88;;;;;;;;;;4998791;28;98466;-80
2023/12/30 11:15:11;;;;;;;;;;;;;;;;;;4998968;28;99215;-81
2023/12/30 11:17:37;;;;;;;5.53;1.38;;;;;;;;;;5017221;28;100600;-82
2023/12/30 11:20:25;;;;;;;5.30;1.30;;;;;;;;;;5015339;28;98065;-80
2023/12/30 11:22:53;;;;;;;5.45;1.55;;;;;;;;;;4997274;28;103202;-80
2023/12/30 11:25:20;;;;;;;5.95;1.60;;;;;;;;;;5015138;28;98946;-80
2023/12/30 11:27:56;;;;;;;6.07;1.50;;;;;;;;;;4998006;28;102003;-81
2023/12/30 11:30:26;;;;;;;4.22;1.33;;;;;;;;;;5012344;28;99060;-80
2023/12/30 11:32:54;;;;;;;4.95;1.58;;;;;;;;;;5008762;28;98681;-81
2023/12/30 11:35:23;;;;;;;6.85;1.60;;;;;;;;;;4980082;28;100947;-80
2023/12/30 11:37:52;;;;;;;5.32;1.55;;;;;;;;;;5004515;28;98453;-80
2023/12/30 11:40:19;;;;;;;5.75;1.50;;;;;;;;;;5010686;28;98797;-80
2023/12/30 11:42:46;;;;;;;4.82;1.50;;;;;;;;;;5005036;28;97993;-77
2023/12/30 11:45:13;;;;;;;;;;;;;;;;;;4995318;28;98526;-79
2023/12/30 11:47:39;;;;;;;6.35;1.70;;;;;;;;;;4996454;28;105447;-81
2023/12/30 11:50:09;;;;;;;5.57;1.50;;;;;;;;;;4996277;28;99513;-79
2023/12/30 11:52:44;;;;;;;6.03;1.50;;;;;;;;;;4993798;28;98306;-79
2023/12/30 11:55:11;;;;;;;6.47;1.60;;;;;;;;;;4994430;28;101004;-79
2023/12/30 11:57:38;;;;;;;6.07;1.52;;;;;;;;;;5003930;28;98335;-80
2023/12/30 12:00:07;;;;;;;6.55;1.70;;;;;;;;;;5000335;27;99366;-79
2023/12/30 12:02:37;;;;;;;7.93;1.92;;;;;;;;;;5010417;27;103027;-80
2023/12/30 12:05:05;;;;;;;8.38;1.90;;;;;;;;;;4977971;28;98248;-79
2023/12/30 12:07:31;;;;;;;5.82;1.80;;;;;;;;;;4994112;28;101117;-79
2023/12/30 12:09:58;;;;;;;5.22;1.92;;;;;;;;;;5011597;28;98589;-80
2023/12/30 12:12:25;;;;;;;5.65;2.00;;;;;;;;;;4996428;27;98450;-79
2023/12/30 12:14:52;;;;;;;;;;;;;;;;;;5003127;28;99369;-80
2023/12/30 12:17:19;;;;;;;7.53;2.20;;;;;;;;;;5004674;28;105839;-79
2023/12/30 12:19:46;;;;;;;6.70;2.20;;;;;;;;;;5007876;28;98513;-79
2023/12/30 12:22:13;;;;;;;7.47;2.13;;;;;;;;;;4995965;27;101566;-80
2023/12/30 12:24:40;;;;;;;7.32;2.10;;;;;;;;;;4979481;28;98693;-80
2023/12/30 12:27:07;;;;;;;5.40;2.00;;;;;;;;;;4985430;28;98943;-79
2023/12/30 12:29:43;;;;;;;5.50;1.90;;;;;;;;;;4978005;28;101320;-80
2023/12/30 12:32:15;;;;;;;7.05;2.40;;;;;;;;;;4999974;28;97568;-79
2023/12/30 12:34:42;;;;;;;6.65;2.20;;;;;;;;;;4988415;28;100462;-79
2023/12/30 12:37:10;;;;;;;5.60;2.10;;;;;;;;;;5008661;28;99722;-79
2023/12/30 12:39:37;;;;;;;7.10;2.40;;;;;;;;;;4993972;28;99230;-80
2023/12/30 12:42:03;;;;;;;9.45;2.20;;;;;;;;;;4987004;28;98872;-80
2023/12/30 12:44:48;;;;;;;7.18;2.33;;;;;;;;;;5010004;28;98399;-78
2023/12/30 12:47:15;;;;;;;7.47;2.58;;;;;;;;;;5002823;28;100903;-79
2023/12/30 12:49:42;;;;;;;6.55;2.28;;;;;;;;;;5001282;28;99561;-79
2023/12/30 12:52:08;;;;;;;7.97;2.55;;;;;;;;;;5010846;28;98517;-80
2023/12/30 12:54:35;;;;;;;6.53;2.30;;;;;;;;;;4993925;28;98746;-80
2023/12/30 12:57:02;;;;;;;7.53;2.20;;;;;;;;;;4993283;28;98106;-79
2023/12/30 12:59:28;;;;;;;6.93;2.20;;;;;;;;;;4980975;28;98473;-80
2023/12/30 13:01:55;;;;;;;8.05;2.58;;;;;;;;;;4990614;28;100457;-80
2023/12/30 13:04:22;;;;;;;8.02;2.70;;;;;;;;;;4993922;28;99494;-79
2023/12/30 13:06:49;;;;;;;7.57;2.50;;;;;;;;;;4995650;28;99840;-80
2023/12/30 13:12:00;;;;;;;;;;;;;;;;;;4994045;28;98683;-80
2023/12/30 13:14:27;;;;;;;7.20;2.15;;;;;;;;;;4991235;28;98869;-80
2023/12/30 13:16:54;;;;;;;7.45;2.40;;;;;;;;;;5003052;28;99160;-80
2023/12/30 13:19:21;;;;;;;6.93;2.38;;;;;;;;;;4993570;28;98744;-80
2023/12/30 13:21:49;;;;;;;6.40;2.20;;;;;;;;;;4977414;28;99890;-80
2023/12/30 13:24:15;;;;;;;7.15;2.42;;;;;;;;;;4991911;28;98287;-81
2023/12/30 13:26:45;;;;;;;7.82;2.58;;;;;;;;;;4993821;28;98676;-79
2023/12/30 13:29:13;;;;;;;5.40;1.88;;;;;;;;;;4992313;28;102349;-79
2023/12/30 13:31:43;;;;;;;6.85;2.30;;;;;;;;;;4993301;28;98543;-80
2023/12/30 13:34:12;;;;;;;7.32;2.20;;;;;;;;;;4975464;28;101446;-80
2023/12/30 13:36:40;;;;;;;7.25;2.10;;;;;;;;;;4994818;28;98967;-80
2023/12/30 13:39:06;;;;;;;6.25;2.33;;;;;;;;;;4990442;28;98312;-80
2023/12/30 13:41:35;;;;;;;7.38;2.28;;;;;;;;;;4994698;28;98996;-80
2023/12/30 13:44:08;;;;;;;6.45;2.13;;;;;;;;;;4996721;28;99062;-80
2023/12/30 13:46:57;;;;;;;7.53;2.10;;;;;;;;;;4993691;28;104927;-81
2023/12/30 13:51:55;;;;;;;6.28;1.85;;;;;;;;;;4988713;28;98579;-80
2023/12/30 13:54:23;;;;;;;8.27;2.20;;;;;;;;;;4989860;28;99274;-80
2023/12/30 13:56:54;;;;;;;5.70;1.90;;;;;;;;;;4993196;28;98988;-79
2023/12/30 13:59:22;;;;;;;6.70;2.03;;;;;;;;;;4984370;28;98183;-80
2023/12/30 14:01:48;;;;;;;7.53;2.15;;;;;;;;;;4994283;28;98486;-80
2023/12/30 14:04:19;;;;;;;7.63;1.80;;;;;;;;;;4991265;28;101373;-79
2023/12/30 14:06:46;;;;;;;7.20;2.25;;;;;;;;;;4997315;28;98302;-79
2023/12/30 14:09:27;;;;;;;7.10;2.35;;;;;;;;;;4994408;28;101625;-79
2023/12/30 14:12:01;;;;;;;5.78;2.20;;;;;;;;;;4997579;28;98107;-78
2023/12/30 14:14:34;;;;;;;6.50;2.10;;;;;;;;;;4997019;28;100225;-79
2023/12/30 14:17:01;;;;;;;6.50;2.10;;;;;;;;;;4979474;28;101535;-79
2023/12/30 14:19:28;;;;;;;7.35;2.10;;;;;;;;;;4995819;28;99347;-78
2023/12/30 14:21:55;;;;;;;7.78;2.10;;;;;;;;;;4997252;28;99053;-81
2023/12/30 14:24:22;;;;;;;7.35;2.30;;;;;;;;;;4995609;28;101307;-82
2023/12/30 14:26:49;;;;;;;;;;;;;;;;;;4999710;28;98562;-82
2023/12/30 14:29:15;;;;;;;6.72;2.20;;;;;;;;;;5001645;28;109150;-80
2023/12/30 14:31:42;;;;;;;7.47;2.33;;;;;;;;;;4993688;28;98405;-79
2023/12/30 14:34:09;;;;;;;6.72;2.45;;;;;;;;;;4997657;28;98696;-80
2023/12/30 14:36:36;;;;;;;7.70;2.35;;;;;;;;;;4989193;28;100644;-80
2023/12/30 14:39:06;;;;;;;7.28;2.63;;;;;;;;;;4994238;28;98242;-79
2023/12/30 14:41:37;;;;;;;9.15;2.50;;;;;;;;;;4997855;28;98397;-80
2023/12/30 14:44:05;;;;;;;9.18;2.60;;;;;;;;;;4996890;28;99989;-81
2023/12/30 14:46:31;;;;;;;8.43;2.65;;;;;;;;;;4998368;28;98654;-79
2023/12/30 14:48:58;;;;;;;8.43;2.80;;;;;;;;;;4998563;28;98950;-78